sensor_id;sensor_type;location;lat;lon;timestamp;P1;durP1;ratioP1;P2;durP2;ratioP2
17306;SDS011;8771;48.048;7.682;2024-02-23T00:02:58;1.27;;;0.27;;
17306;SDS011;8771;48.048;7.682;2024-02-23T00:08:01;0.30;;;0.30;;
17306;SDS011;8771;48.048;7.682;2024-02-23T00:13:04;0.30;;;0.30;;
17306;SDS011;8771;48.048;7.682;2024-02-23T00:18:08;0.77;;;0.30;;
17306;SDS011;8771;48.048;7.682;2024-02-23T00:23:11;0.57;;;0.40;;
17306;SDS011;8771;48.048;7.682;2024-02-23T00:28:14;1.10;;;0.30;;
17306;SDS011;8771;48.048;7.682;2024-02-23T00:33:18;0.57;;;0.40;;
17306;SDS011;8771;48.048;7.682;2024-02-23T00:38:21;1.20;;;0.37;;
17306;SDS011;8771;48.048;7.682;2024-02-23T00:43:24;0.63;;;0.40;;
17306;SDS011;8771;48.048;7.682;2024-02-23T00:48:28;0.33;;;0.20;;
17306;SDS011;8771;48.048;7.682;2024-02-23T00:53:31;0.20;;;0.20;;
17306;SDS011;8771;48.048;7.682;2024-02-23T00:58:34;0.90;;;0.30;;
17306;SDS011;8771;48.048;7.682;2024-02-23T01:03:38;0.30;;;0.30;;
17306;SDS011;8771;48.048;7.682;2024-02-23T01:08:41;0.30;;;0.20;;
17306;SDS011;8771;48.048;7.682;2024-02-23T01:13:44;0.40;;;0.40;;
17306;SDS011;8771;48.048;7.682;2024-02-23T01:18:49;1.63;;;0.63;;
17306;SDS011;8771;48.048;7.682;2024-02-23T01:23:51;0.93;;;0.47;;
17306;SDS011;8771;48.048;7.682;2024-02-23T01:28:54;1.23;;;0.60;;
17306;SDS011;8771;48.048;7.682;2024-02-23T01:33:59;1.00;;;0.50;;
17306;SDS011;8771;48.048;7.682;2024-02-23T01:39:02;1.50;;;0.60;;
17306;SDS011;8771;48.048;7.682;2024-02-23T01:44:05;2.43;;;0.60;;
17306;SDS011;8771;48.048;7.682;2024-02-23T01:49:10;1.40;;;0.50;;
17306;SDS011;8771;48.048;7.682;2024-02-23T01:54:13;1.00;;;0.73;;
17306;SDS011;8771;48.048;7.682;2024-02-23T01:59:17;0.93;;;0.50;;
17306;SDS011;8771;48.048;7.682;2024-02-23T02:04:22;2.37;;;0.60;;
17306;SDS011;8771;48.048;7.682;2024-02-23T02:09:25;1.53;;;0.50;;
17306;SDS011;8771;48.048;7.682;2024-02-23T02:14:28;1.53;;;0.60;;
17306;SDS011;8771;48.048;7.682;2024-02-23T02:19:34;1.93;;;0.50;;
17306;SDS011;8771;48.048;7.682;2024-02-23T02:24:38;4.50;;;1.00;;
17306;SDS011;8771;48.048;7.682;2024-02-23T02:29:43;1.60;;;0.87;;
17306;SDS011;8771;48.048;7.682;2024-02-23T02:34:47;0.60;;;0.60;;
17306;SDS011;8771;48.048;7.682;2024-02-23T02:39:49;1.93;;;0.90;;
17306;SDS011;8771;48.048;7.682;2024-02-23T02:45:06;1.97;;;0.50;;
17306;SDS011;8771;48.048;7.682;2024-02-23T02:50:25;1.63;;;0.63;;
17306;SDS011;8771;48.048;7.682;2024-02-23T02:55:28;0.50;;;0.50;;
17306;SDS011;8771;48.048;7.682;2024-02-23T03:00:30;2.27;;;0.73;;
17306;SDS011;8771;48.048;7.682;2024-02-23T03:05:51;0.90;;;0.50;;
17306;SDS011;8771;48.048;7.682;2024-02-23T03:10:54;2.40;;;0.67;;
17306;SDS011;8771;48.048;7.682;2024-02-23T03:15:58;0.50;;;0.50;;
17306;SDS011;8771;48.048;7.682;2024-02-23T03:21:02;1.40;;;0.60;;
17306;SDS011;8771;48.048;7.682;2024-02-23T03:26:06;0.70;;;0.57;;
17306;SDS011;8771;48.048;7.682;2024-02-23T03:31:09;4.67;;;1.23;;
17306;SDS011;8771;48.048;7.682;2024-02-23T03:36:12;0.97;;;0.50;;
17306;SDS011;8771;48.048;7.682;2024-02-23T03:41:15;0.90;;;0.70;;
17306;SDS011;8771;48.048;7.682;2024-02-23T03:46:18;4.20;;;0.70;;
17306;SDS011;8771;48.048;7.682;2024-02-23T03:51:23;1.93;;;0.67;;
17306;SDS011;8771;48.048;7.682;2024-02-23T03:56:26;2.10;;;0.87;;
17306;SDS011;8771;48.048;7.682;2024-02-23T04:01:29;0.97;;;0.70;;
17306;SDS011;8771;48.048;7.682;2024-02-23T04:06:33;1.93;;;0.60;;
17306;SDS011;8771;48.048;7.682;2024-02-23T04:11:36;1.80;;;0.70;;
17306;SDS011;8771;48.048;7.682;2024-02-23T04:16:39;1.00;;;0.63;;
17306;SDS011;8771;48.048;7.682;2024-02-23T04:21:42;1.57;;;0.70;;
17306;SDS011;8771;48.048;7.682;2024-02-23T04:26:44;3.40;;;0.73;;
17306;SDS011;8771;48.048;7.682;2024-02-23T04:31:47;2.33;;;0.70;;
17306;SDS011;8771;48.048;7.682;2024-02-23T04:37:08;3.53;;;0.70;;
17306;SDS011;8771;48.048;7.682;2024-02-23T04:42:11;4.40;;;1.20;;
17306;SDS011;8771;48.048;7.682;2024-02-23T04:47:14;2.27;;;0.70;;
17306;SDS011;8771;48.048;7.682;2024-02-23T04:52:18;2.63;;;0.77;;
17306;SDS011;8771;48.048;7.682;2024-02-23T04:57:20;1.57;;;1.00;;
17306;SDS011;8771;48.048;7.682;2024-02-23T05:02:25;4.40;;;1.00;;
17306;SDS011;8771;48.048;7.682;2024-02-23T05:07:30;3.53;;;0.80;;
17306;SDS011;8771;48.048;7.682;2024-02-23T05:12:35;4.80;;;1.10;;
17306;SDS011;8771;48.048;7.682;2024-02-23T05:17:37;2.93;;;0.93;;
17306;SDS011;8771;48.048;7.682;2024-02-23T05:22:55;5.67;;;1.03;;
17306;SDS011;8771;48.048;7.682;2024-02-23T05:28:12;1.40;;;0.77;;
17306;SDS011;8771;48.048;7.682;2024-02-23T05:33:32;2.50;;;0.60;;
17306;SDS011;8771;48.048;7.682;2024-02-23T05:38:36;5.27;;;0.77;;
17306;SDS011;8771;48.048;7.682;2024-02-23T05:43:39;5.17;;;1.57;;
17306;SDS011;8771;48.048;7.682;2024-02-23T05:48:42;1.07;;;0.70;;
17306;SDS011;8771;48.048;7.682;2024-02-23T05:53:47;2.63;;;0.83;;
17306;SDS011;8771;48.048;7.682;2024-02-23T05:58:49;1.57;;;0.90;;
17306;SDS011;8771;48.048;7.682;2024-02-23T06:03:52;2.00;;;0.80;;
17306;SDS011;8771;48.048;7.682;2024-02-23T06:08:57;3.13;;;1.03;;
17306;SDS011;8771;48.048;7.682;2024-02-23T06:14:01;2.63;;;0.97;;
17306;SDS011;8771;48.048;7.682;2024-02-23T06:19:04;4.93;;;1.50;;
17306;SDS011;8771;48.048;7.682;2024-02-23T06:24:08;3.33;;;0.90;;
17306;SDS011;8771;48.048;7.682;2024-02-23T06:29:11;2.47;;;1.20;;
17306;SDS011;8771;48.048;7.682;2024-02-23T06:34:14;3.87;;;1.13;;
17306;SDS011;8771;48.048;7.682;2024-02-23T06:39:19;2.43;;;1.17;;
17306;SDS011;8771;48.048;7.682;2024-02-23T06:44:22;3.07;;;1.30;;
17306;SDS011;8771;48.048;7.682;2024-02-23T06:49:25;4.07;;;1.07;;
17306;SDS011;8771;48.048;7.682;2024-02-23T06:54:29;5.47;;;1.67;;
17306;SDS011;8771;48.048;7.682;2024-02-23T06:59:32;4.23;;;1.20;;
17306;SDS011;8771;48.048;7.682;2024-02-23T07:04:35;1.80;;;0.80;;
17306;SDS011;8771;48.048;7.682;2024-02-23T07:09:39;3.03;;;1.10;;
17306;SDS011;8771;48.048;7.682;2024-02-23T07:14:42;2.53;;;1.10;;
17306;SDS011;8771;48.048;7.682;2024-02-23T07:19:45;4.87;;;1.10;;
17306;SDS011;8771;48.048;7.682;2024-02-23T07:24:50;6.07;;;1.20;;
17306;SDS011;8771;48.048;7.682;2024-02-23T07:29:52;6.17;;;1.17;;
17306;SDS011;8771;48.048;7.682;2024-02-23T07:34:55;3.90;;;1.00;;
17306;SDS011;8771;48.048;7.682;2024-02-23T07:40:00;4.07;;;1.13;;
17306;SDS011;8771;48.048;7.682;2024-02-23T07:45:04;4.97;;;2.00;;
17306;SDS011;8771;48.048;7.682;2024-02-23T07:50:08;4.43;;;1.10;;
17306;SDS011;8771;48.048;7.682;2024-02-23T07:55:15;6.40;;;1.53;;
17306;SDS011;8771;48.048;7.682;2024-02-23T08:00:19;6.50;;;1.57;;
17306;SDS011;8771;48.048;7.682;2024-02-23T08:05:24;5.40;;;1.50;;
17306;SDS011;8771;48.048;7.682;2024-02-23T08:10:27;8.17;;;1.63;;
17306;SDS011;8771;48.048;7.682;2024-02-23T08:15:30;5.53;;;1.30;;
17306;SDS011;8771;48.048;7.682;2024-02-23T08:20:32;6.17;;;2.30;;
17306;SDS011;8771;48.048;7.682;2024-02-23T08:25:36;4.63;;;2.07;;
17306;SDS011;8771;48.048;7.682;2024-02-23T08:30:38;7.07;;;2.50;;
17306;SDS011;8771;48.048;7.682;2024-02-23T08:35:41;7.70;;;2.53;;
17306;SDS011;8771;48.048;7.682;2024-02-23T08:40:45;4.50;;;1.77;;
17306;SDS011;8771;48.048;7.682;2024-02-23T08:45:48;6.20;;;1.53;;
17306;SDS011;8771;48.048;7.682;2024-02-23T08:50:50;7.33;;;1.33;;
17306;SDS011;8771;48.048;7.682;2024-02-23T08:55:55;4.17;;;1.17;;
17306;SDS011;8771;48.048;7.682;2024-02-23T09:00:58;6.67;;;1.57;;
17306;SDS011;8771;48.048;7.682;2024-02-23T09:06:01;5.10;;;1.50;;
17306;SDS011;8771;48.048;7.682;2024-02-23T09:11:05;4.43;;;1.20;;
17306;SDS011;8771;48.048;7.682;2024-02-23T09:16:08;5.57;;;1.43;;
17306;SDS011;8771;48.048;7.682;2024-02-23T09:21:11;5.17;;;1.30;;
17306;SDS011;8771;48.048;7.682;2024-02-23T09:26:14;3.27;;;1.30;;
17306;SDS011;8771;48.048;7.682;2024-02-23T09:31:17;6.03;;;1.50;;
17306;SDS011;8771;48.048;7.682;2024-02-23T09:36:21;8.63;;;1.60;;
17306;SDS011;8771;48.048;7.682;2024-02-23T09:41:24;5.33;;;1.30;;
17306;SDS011;8771;48.048;7.682;2024-02-23T09:46:42;4.20;;;1.47;;
17306;SDS011;8771;48.048;7.682;2024-02-23T09:51:46;3.30;;;1.07;;
17306;SDS011;8771;48.048;7.682;2024-02-23T09:56:50;3.53;;;1.27;;
17306;SDS011;8771;48.048;7.682;2024-02-23T10:01:54;5.23;;;1.63;;
17306;SDS011;8771;48.048;7.682;2024-02-23T10:06:57;7.43;;;1.30;;
17306;SDS011;8771;48.048;7.682;2024-02-23T10:12:01;2.97;;;1.40;;
17306;SDS011;8771;48.048;7.682;2024-02-23T10:17:19;3.47;;;1.57;;
17306;SDS011;8771;48.048;7.682;2024-02-23T10:22:22;5.63;;;1.27;;
17306;SDS011;8771;48.048;7.682;2024-02-23T10:27:26;4.63;;;1.30;;
17306;SDS011;8771;48.048;7.682;2024-02-23T10:32:31;3.23;;;1.23;;
17306;SDS011;8771;48.048;7.682;2024-02-23T10:37:35;4.37;;;1.40;;
17306;SDS011;8771;48.048;7.682;2024-02-23T10:42:38;4.27;;;1.10;;
17306;SDS011;8771;48.048;7.682;2024-02-23T10:47:44;2.53;;;1.27;;
17306;SDS011;8771;48.048;7.682;2024-02-23T10:53:04;5.20;;;1.40;;
17306;SDS011;8771;48.048;7.682;2024-02-23T10:58:10;6.37;;;1.80;;
17306;SDS011;8771;48.048;7.682;2024-02-23T11:03:29;2.97;;;1.10;;
17306;SDS011;8771;48.048;7.682;2024-02-23T11:08:34;3.77;;;1.30;;
17306;SDS011;8771;48.048;7.682;2024-02-23T11:13:39;5.13;;;1.50;;
17306;SDS011;8771;48.048;7.682;2024-02-23T11:18:43;3.27;;;1.33;;
17306;SDS011;8771;48.048;7.682;2024-02-23T11:23:47;3.20;;;1.13;;
17306;SDS011;8771;48.048;7.682;2024-02-23T11:28:51;3.40;;;1.30;;
17306;SDS011;8771;48.048;7.682;2024-02-23T11:33:54;2.77;;;1.57;;
17306;SDS011;8771;48.048;7.682;2024-02-23T11:38:57;4.93;;;1.20;;
17306;SDS011;8771;48.048;7.682;2024-02-23T11:44:02;3.23;;;1.13;;
17306;SDS011;8771;48.048;7.682;2024-02-23T11:49:08;9.77;;;1.40;;
17306;SDS011;8771;48.048;7.682;2024-02-23T11:54:11;3.60;;;2.03;;
17306;SDS011;8771;48.048;7.682;2024-02-23T11:59:16;5.47;;;1.50;;
17306;SDS011;8771;48.048;7.682;2024-02-23T12:04:19;3.23;;;1.20;;
17306;SDS011;8771;48.048;7.682;2024-02-23T12:09:20;3.87;;;1.50;;
17306;SDS011;8771;48.048;7.682;2024-02-23T12:14:25;3.30;;;1.67;;
17306;SDS011;8771;48.048;7.682;2024-02-23T12:19:28;3.17;;;1.17;;
17306;SDS011;8771;48.048;7.682;2024-02-23T12:24:32;4.57;;;2.47;;
17306;SDS011;8771;48.048;7.682;2024-02-23T12:29:37;3.07;;;1.50;;
17306;SDS011;8771;48.048;7.682;2024-02-23T12:34:39;2.93;;;1.27;;
17306;SDS011;8771;48.048;7.682;2024-02-23T12:39:56;4.17;;;1.17;;
17306;SDS011;8771;48.048;7.682;2024-02-23T12:44:59;2.97;;;0.90;;
17306;SDS011;8771;48.048;7.682;2024-02-23T12:50:08;3.33;;;1.10;;
17306;SDS011;8771;48.048;7.682;2024-02-23T12:55:12;2.80;;;1.00;;
17306;SDS011;8771;48.048;7.682;2024-02-23T13:00:17;1.53;;;1.00;;
17306;SDS011;8771;48.048;7.682;2024-02-23T13:05:20;1.37;;;0.83;;
17306;SDS011;8771;48.048;7.682;2024-02-23T13:10:23;2.80;;;1.00;;
17306;SDS011;8771;48.048;7.682;2024-02-23T13:15:26;4.23;;;2.10;;
17306;SDS011;8771;48.048;7.682;2024-02-23T13:20:28;7.83;;;1.40;;
17306;SDS011;8771;48.048;7.682;2024-02-23T13:25:45;3.53;;;1.20;;
17306;SDS011;8771;48.048;7.682;2024-02-23T13:30:48;7.47;;;1.43;;
17306;SDS011;8771;48.048;7.682;2024-02-23T13:35:51;3.03;;;0.87;;
17306;SDS011;8771;48.048;7.682;2024-02-23T13:40:55;1.93;;;0.87;;
17306;SDS011;8771;48.048;7.682;2024-02-23T13:45:58;2.50;;;1.57;;
17306;SDS011;8771;48.048;7.682;2024-02-23T13:51:00;3.30;;;1.30;;
17306;SDS011;8771;48.048;7.682;2024-02-23T13:56:03;4.13;;;1.00;;
17306;SDS011;8771;48.048;7.682;2024-02-23T14:01:07;3.93;;;1.03;;
17306;SDS011;8771;48.048;7.682;2024-02-23T14:06:26;1.93;;;0.80;;
17306;SDS011;8771;48.048;7.682;2024-02-23T14:11:29;1.97;;;0.80;;
17306;SDS011;8771;48.048;7.682;2024-02-23T14:16:34;1.37;;;0.80;;
17306;SDS011;8771;48.048;7.682;2024-02-23T14:21:37;1.50;;;0.80;;
17306;SDS011;8771;48.048;7.682;2024-02-23T14:26:39;2.73;;;0.90;;
17306;SDS011;8771;48.048;7.682;2024-02-23T14:31:42;2.60;;;0.90;;
17306;SDS011;8771;48.048;7.682;2024-02-23T14:36:44;1.27;;;0.60;;
17306;SDS011;8771;48.048;7.682;2024-02-23T14:41:47;1.10;;;0.73;;
17306;SDS011;8771;48.048;7.682;2024-02-23T14:46:51;2.80;;;0.80;;
17306;SDS011;8771;48.048;7.682;2024-02-23T14:51:54;0.93;;;0.50;;
17306;SDS011;8771;48.048;7.682;2024-02-23T14:56:57;1.13;;;0.70;;
17306;SDS011;8771;48.048;7.682;2024-02-23T15:02:01;3.43;;;0.70;;
17306;SDS011;8771;48.048;7.682;2024-02-23T15:07:03;2.67;;;0.93;;
17306;SDS011;8771;48.048;7.682;2024-02-23T15:12:07;1.73;;;0.90;;
17306;SDS011;8771;48.048;7.682;2024-02-23T15:17:11;3.43;;;1.17;;
17306;SDS011;8771;48.048;7.682;2024-02-23T15:22:14;2.23;;;1.00;;
17306;SDS011;8771;48.048;7.682;2024-02-23T15:27:19;1.47;;;0.77;;
17306;SDS011;8771;48.048;7.682;2024-02-23T15:32:23;1.97;;;1.20;;
17306;SDS011;8771;48.048;7.682;2024-02-23T15:37:28;0.90;;;0.90;;
17306;SDS011;8771;48.048;7.682;2024-02-23T15:42:31;1.93;;;1.00;;
17306;SDS011;8771;48.048;7.682;2024-02-23T15:47:38;4.17;;;1.13;;
17306;SDS011;8771;48.048;7.682;2024-02-23T15:52:40;1.53;;;0.90;;
17306;SDS011;8771;48.048;7.682;2024-02-23T15:57:43;2.40;;;0.93;;
17306;SDS011;8771;48.048;7.682;2024-02-23T16:02:48;0.93;;;0.70;;
17306;SDS011;8771;48.048;7.682;2024-02-23T16:07:51;1.30;;;1.00;;
17306;SDS011;8771;48.048;7.682;2024-02-23T16:12:53;3.03;;;1.00;;
17306;SDS011;8771;48.048;7.682;2024-02-23T16:18:00;1.83;;;0.80;;
17306;SDS011;8771;48.048;7.682;2024-02-23T16:23:02;1.97;;;0.73;;
17306;SDS011;8771;48.048;7.682;2024-02-23T16:28:05;2.97;;;1.80;;
17306;SDS011;8771;48.048;7.682;2024-02-23T16:33:09;4.40;;;3.43;;
17306;SDS011;8771;48.048;7.682;2024-02-23T16:38:12;4.60;;;3.20;;
17306;SDS011;8771;48.048;7.682;2024-02-23T16:43:15;5.83;;;4.60;;
17306;SDS011;8771;48.048;7.682;2024-02-23T16:48:20;4.83;;;3.97;;
17306;SDS011;8771;48.048;7.682;2024-02-23T16:53:22;3.73;;;3.43;;
17306;SDS011;8771;48.048;7.682;2024-02-23T16:58:26;2.10;;;1.10;;
17306;SDS011;8771;48.048;7.682;2024-02-23T17:03:35;1.63;;;0.93;;
17306;SDS011;8771;48.048;7.682;2024-02-23T17:08:38;2.13;;;1.60;;
17306;SDS011;8771;48.048;7.682;2024-02-23T17:13:42;3.23;;;1.67;;
17306;SDS011;8771;48.048;7.682;2024-02-23T17:18:46;1.93;;;1.00;;
17306;SDS011;8771;48.048;7.682;2024-02-23T17:23:49;1.80;;;1.37;;
17306;SDS011;8771;48.048;7.682;2024-02-23T17:28:52;2.90;;;2.30;;
17306;SDS011;8771;48.048;7.682;2024-02-23T17:34:05;7.80;;;1.27;;
17306;SDS011;8771;48.048;7.682;2024-02-23T17:39:08;2.40;;;0.93;;
17306;SDS011;8771;48.048;7.682;2024-02-23T17:44:13;1.57;;;0.87;;
17306;SDS011;8771;48.048;7.682;2024-02-23T17:49:20;3.03;;;1.37;;
17306;SDS011;8771;48.048;7.682;2024-02-23T17:54:23;2.00;;;1.73;;
17306;SDS011;8771;48.048;7.682;2024-02-23T17:59:25;2.70;;;2.50;;
17306;SDS011;8771;48.048;7.682;2024-02-23T18:04:30;4.70;;;2.93;;
17306;SDS011;8771;48.048;7.682;2024-02-23T18:09:33;3.77;;;2.30;;
17306;SDS011;8771;48.048;7.682;2024-02-23T18:14:36;4.83;;;2.60;;
17306;SDS011;8771;48.048;7.682;2024-02-23T18:19:40;5.60;;;3.83;;
17306;SDS011;8771;48.048;7.682;2024-02-23T18:24:44;8.53;;;5.40;;
17306;SDS011;8771;48.048;7.682;2024-02-23T18:29:47;8.73;;;6.40;;
17306;SDS011;8771;48.048;7.682;2024-02-23T18:34:52;13.17;;;7.77;;
17306;SDS011;8771;48.048;7.682;2024-02-23T18:39:55;13.77;;;8.10;;
17306;SDS011;8771;48.048;7.682;2024-02-23T18:44:58;15.33;;;7.93;;
17306;SDS011;8771;48.048;7.682;2024-02-23T18:50:01;10.70;;;6.10;;
17306;SDS011;8771;48.048;7.682;2024-02-23T18:55:03;8.30;;;5.40;;
17306;SDS011;8771;48.048;7.682;2024-02-23T19:00:08;9.73;;;6.10;;
17306;SDS011;8771;48.048;7.682;2024-02-23T19:05:12;14.03;;;11.00;;
17306;SDS011;8771;48.048;7.682;2024-02-23T19:10:15;7.40;;;5.47;;
17306;SDS011;8771;48.048;7.682;2024-02-23T19:15:17;6.10;;;3.83;;
17306;SDS011;8771;48.048;7.682;2024-02-23T19:20:21;3.73;;;2.50;;
17306;SDS011;8771;48.048;7.682;2024-02-23T19:25:24;3.03;;;2.07;;
17306;SDS011;8771;48.048;7.682;2024-02-23T19:30:28;2.77;;;1.80;;
17306;SDS011;8771;48.048;7.682;2024-02-23T19:35:32;3.50;;;1.70;;
17306;SDS011;8771;48.048;7.682;2024-02-23T19:40:34;2.63;;;1.80;;
17306;SDS011;8771;48.048;7.682;2024-02-23T19:45:35;4.00;;;2.30;;
17306;SDS011;8771;48.048;7.682;2024-02-23T19:50:54;7.73;;;4.80;;
17306;SDS011;8771;48.048;7.682;2024-02-23T19:55:56;6.10;;;4.50;;
17306;SDS011;8771;48.048;7.682;2024-02-23T20:00:58;6.80;;;3.90;;
17306;SDS011;8771;48.048;7.682;2024-02-23T20:06:01;7.53;;;4.53;;
17306;SDS011;8771;48.048;7.682;2024-02-23T20:11:18;12.73;;;9.87;;
17306;SDS011;8771;48.048;7.682;2024-02-23T20:16:20;7.37;;;4.03;;
17306;SDS011;8771;48.048;7.682;2024-02-23T20:21:24;3.13;;;1.30;;
17306;SDS011;8771;48.048;7.682;2024-02-23T20:26:33;2.77;;;1.63;;
17306;SDS011;8771;48.048;7.682;2024-02-23T20:31:35;3.03;;;1.20;;
17306;SDS011;8771;48.048;7.682;2024-02-23T20:36:43;1.53;;;1.37;;
17306;SDS011;8771;48.048;7.682;2024-02-23T20:41:45;1.87;;;1.17;;
17306;SDS011;8771;48.048;7.682;2024-02-23T20:46:47;0.70;;;0.70;;
17306;SDS011;8771;48.048;7.682;2024-02-23T20:51:51;1.80;;;0.70;;
17306;SDS011;8771;48.048;7.682;2024-02-23T20:57:11;1.27;;;0.70;;
17306;SDS011;8771;48.048;7.682;2024-02-23T21:02:31;0.50;;;0.50;;
17306;SDS011;8771;48.048;7.682;2024-02-23T21:07:37;0.50;;;0.50;;
17306;SDS011;8771;48.048;7.682;2024-02-23T21:12:40;0.70;;;0.70;;
17306;SDS011;8771;48.048;7.682;2024-02-23T21:17:43;1.20;;;0.47;;
17306;SDS011;8771;48.048;7.682;2024-02-23T21:22:46;0.43;;;0.43;;
17306;SDS011;8771;48.048;7.682;2024-02-23T21:28:03;0.47;;;0.47;;
17306;SDS011;8771;48.048;7.682;2024-02-23T21:33:05;0.40;;;0.40;;
17306;SDS011;8771;48.048;7.682;2024-02-23T21:38:09;0.53;;;0.47;;
17306;SDS011;8771;48.048;7.682;2024-02-23T21:43:13;0.40;;;0.40;;
17306;SDS011;8771;48.048;7.682;2024-02-23T21:48:16;0.40;;;0.40;;
17306;SDS011;8771;48.048;7.682;2024-02-23T21:53:20;1.03;;;0.57;;
17306;SDS011;8771;48.048;7.682;2024-02-23T21:58:23;0.30;;;0.30;;
17306;SDS011;8771;48.048;7.682;2024-02-23T22:03:26;0.77;;;0.60;;
17306;SDS011;8771;48.048;7.682;2024-02-23T22:08:31;1.07;;;1.07;;
17306;SDS011;8771;48.048;7.682;2024-02-23T22:13:34;1.30;;;1.20;;
17306;SDS011;8771;48.048;7.682;2024-02-23T22:18:37;1.33;;;1.20;;
17306;SDS011;8771;48.048;7.682;2024-02-23T22:23:41;0.83;;;0.83;;
17306;SDS011;8771;48.048;7.682;2024-02-23T22:28:44;1.20;;;1.03;;
17306;SDS011;8771;48.048;7.682;2024-02-23T22:33:46;0.80;;;0.80;;
17306;SDS011;8771;48.048;7.682;2024-02-23T22:38:49;0.50;;;0.50;;
17306;SDS011;8771;48.048;7.682;2024-02-23T22:43:51;1.37;;;0.70;;
17306;SDS011;8771;48.048;7.682;2024-02-23T22:48:53;2.27;;;1.70;;
17306;SDS011;8771;48.048;7.682;2024-02-23T22:54:11;2.60;;;1.40;;
17306;SDS011;8771;48.048;7.682;2024-02-23T22:59:13;2.47;;;0.80;;
17306;SDS011;8771;48.048;7.682;2024-02-23T23:04:15;0.80;;;0.70;;
17306;SDS011;8771;48.048;7.682;2024-02-23T23:09:19;1.27;;;1.00;;
17306;SDS011;8771;48.048;7.682;2024-02-23T23:14:21;0.63;;;0.57;;
17306;SDS011;8771;48.048;7.682;2024-02-23T23:19:23;0.77;;;0.77;;
17306;SDS011;8771;48.048;7.682;2024-02-23T23:24:42;0.40;;;0.40;;
17306;SDS011;8771;48.048;7.682;2024-02-23T23:29:44;0.40;;;0.40;;
17306;SDS011;8771;48.048;7.682;2024-02-23T23:34:49;1.00;;;0.70;;
17306;SDS011;8771;48.048;7.682;2024-02-23T23:39:53;0.23;;;0.23;;
17306;SDS011;8771;48.048;7.682;2024-02-23T23:44:56;0.30;;;0.30;;
17306;SDS011;8771;48.048;7.682;2024-02-23T23:49:59;1.60;;;0.30;;
17306;SDS011;8771;48.048;7.682;2024-02-23T23:55:04;1.40;;;0.20;;
